AirNav   Air Wisconsin Up To $57,000 Bonus
 
 1420 users online  

MI61 Henry Ford Wyandotte Hospital Heliport
Wyandotte, Michigan, USA

GOING TO WYANDOTTE?


FAA INFORMATION EFFECTIVE 19 MAY 2022

Location

FAA Identifier: MI61
Lat/Long: 42-12-33.8700N 083-08-38.7200W
42-12.564500N 083-08.645333W
42.2094083,-83.1440889
(estimated)
Elevation: 578 ft. / 176 m (estimated)
Variation: 06W (1985)
From city: LCTD IN TOWN.
Time zone: UTC -4 (UTC -5 during Standard Time)
Zip code: 48192

Heliport Operations

Heliport use: Private use, MEDICAL USE.
Activation date: 10/1970
Control tower: no
ARTCC: CLEVELAND CENTER
FSS: LANSING FLIGHT SERVICE STATION
Attendance: IREG
Wind indicator: lighted
Segmented circle: no

Heliport Communications

WX AWOS-3 at ONZ (7 nm S): 119.675 (734-692-9686)
WX ASOS at DTW (9 nm W): PHONE 734-955-5015
WX ASOS at DET (13 nm NE): PHONE 313-371-9696
WX ASOS at YIP (17 nm W): PHONE 734-961-6843

Nearby radio navigation aids

VOR radial/distance  VOR name  Freq  Var
DXOr097/9.9DETROIT VOR/DME113.4006W
CRLr058/17.0CARLETON VOR/DME115.7003W
SVMr124/23.3SALEM VORTAC114.3003W

 
NDB name  Hdg/Dist  Freq  Var  ID
GROSSE ILE010/6.541907WRYS .-. -.-- ...
TECUMSEH078/34.723906WTCU - -.-. ..-

Heliport Services

Airframe service: NONE
Powerplant service: NONE

Runway Information

Helipad H1

Dimensions: 40 x 40 ft. / 12 x 12 m
Surface: concrete
Latitude: 42-12.564500N
Longitude: 083-08.645333W
Elevation: 578.0 ft.
Traffic pattern: leftleft

Heliport Ownership and Management from official FAA records

Ownership: Privately-owned
Owner: HENRY FORD HEALTH SYSTEM
WYANDOTTE HOSPITAL
WYANDOTTE, MI 48192
Phone (734) 246-6008
Manager: TOM MAHONY
2333 BIDDLE
WYANDOTTE, MI 48192
Phone (734) 246-6008
EXT2604

Additional Remarks

APCHS & DEPS TO THE N.
+64 FT UNLGTD MAST POLE 500 NNE OF HELI.
FOR CD CTC DETROIT APCH AT 734-955-1404.

Instrument Procedures

There are no published instrument procedures at MI61.

Some nearby airports with instrument procedures:

KONZ - Grosse Ile Municipal Airport (7 nm S)
KDTW - Detroit Metro Wayne County Airport (9 nm W)
KDET - Coleman A Young Municipal Airport (13 nm NE)
1D2 - Canton-Plymouth-Mettetal Airport (16 nm NW)
KYIP - Willow Run Airport (17 nm W)
 
Loc | Ops | Rwys | IFR | FBO | Links
Com | Nav | Svcs | Stats | Notes
Area around MI61 (Henry Ford Wyandotte Hospital Heliport)
 
Road maps at: MapQuest Bing Google
 
Aerial photo
No photo
 
Sectional chart

 
Airport distance calculator
Flying to Henry Ford Wyandotte Hospital Heliport? Find the distance to fly.

From to MI61

Sunrise and sunset
Times for 26-May-2022
 Local
(UTC-4)
 Zulu
(UTC)
Morning civil twilight05:3009:30
Sunrise06:0310:03
Sunset20:5600:56
Evening civil twilight21:2901:29

Current date and time
Zulu (UTC)  26-May-2022 21:06:12
Local (UTC-4)  26-May-2022 17:06:12
 
METAR
KONZ 
7nm S 
262055Z AUTO 19004KT 2 1/2SM +RA SCT026 BKN035 OVC047 20/20 A2983 RMK AO2 60021 T01950195 P0003
KDTW 
9nm W 
262053Z 18004KT 2SM -RA BR FEW009 BKN020 OVC040 21/19 A2984 RMK AO2 TWR VIS 3 RAE1956B25 SLP101 P0000 60008 T02060194 58007
CYQG 
9nm NE 
262058Z AUTO 21005KT 7SM -RA FEW008 BKN024 OVC031 20/19 A2985 RMK SLP108 DENSITY ALT 1500FT
KDET 
13nm NE 
262053Z 22007KT 9SM -RA BKN022 OVC029 21/19 A2984 RMK AO2 SLP102 P0007 60013 T02110189 56009
CXHA 
15nm SE 
261900Z AUTO 18014G19KT 22/18 RMK AO1 PK WND 21020/1804 SLP106 T02170182 58015
KYIP 
17nm W 
262053Z 19008KT 9SM -RA SCT018 BKN035 OVC075 24/19 A2983 RMK AO2 RAE1958B13E24B42 SLP095 P0001 60016 T02390189 58011
TAF
KDTW 
9nm W 
261731Z 2618/2724 19012G20KT 6SM -SHRA BKN025 OVC050 TEMPO 2621/2624 3SM TSRA BR OVC030CB FM270100 18006KT P6SM OVC025 FM270800 20004KT 5SM BR SCT015 BKN025 FM271400 20006KT 6SM BR OVC020
CYQG 
9nm NE 
262027Z 2620/2718 22012G22KT P6SM BKN025 TEMPO 2620/2704 5SM -SHRA BR SCT008 BKN020 PROB30 2622/2704 VRB20G30KT 2SM TSRA BR OVC015CB FM270400 17010KT P6SM -SHRA OVC015 PROB30 2704/2709 VRB15G25KT 2SM TSRA BR BKN008 OVC015CB FM271500 22012G22KT P6SM BKN020 FM271700 22012G22KT P6SM BKN025 RMK FCST BASED ON AUTO OBS. NXT FCST BY 270000Z
KDET 
13nm NE 
261732Z 2618/2718 19012G20KT 6SM -SHRA BKN025 OVC050 TEMPO 2621/2624 3SM TSRA BR OVC030CB FM270100 18006KT P6SM OVC025 FM270800 20004KT 5SM BR SCT015 BKN025 FM271400 22006KT 6SM BR OVC020
KYIP 
17nm W 
261728Z 2618/2718 19012G20KT 6SM -SHRA SCT025 BKN035 TEMPO 2621/2624 3SM TSRA BR OVC030CB FM270100 18006KT P6SM OVC025 FM270800 20004KT 5SM BR SCT015 BKN025 FM271400 22006KT 6SM BR OVC020
NOTAMs
Click for the latest NOTAMs
NOTAMs are issued by the DoD/FAA and will open in a separate window not controlled by AirNav.

 

 
 

Would you like to see your business listed on this page?

 If your business provides an interesting product or service to pilots, flight crews, aircraft, or users of the Henry Ford Wyandotte Hospital Heliport, you should consider listing it here.  To start the listing process, click on the button below
 
Add a business
 

Other Pages about Henry Ford Wyandotte Hospital Heliport

Update a link
 
Copyright © AirNav, LLC. All rights reserved. Privacy Policy  Contact